sensor_id;sensor_type;location;lat;lon;timestamp;pressure;altitude;pressure_sealevel;temperature;humidity
27705;BME280;15109;50.992;6.918;2022-10-16T00:01:29;100498.78;;;14.32;100.00
27705;BME280;15109;50.992;6.918;2022-10-16T00:04:50;100504.50;;;14.37;100.00
27705;BME280;15109;50.992;6.918;2022-10-16T00:08:12;100515.50;;;14.37;100.00
27705;BME280;15109;50.992;6.918;2022-10-16T00:11:37;100499.19;;;14.42;100.00
27705;BME280;15109;50.992;6.918;2022-10-16T00:15:01;100509.34;;;14.42;100.00
27705;BME280;15109;50.992;6.918;2022-10-16T00:18:24;100516.75;;;14.48;100.00
27705;BME280;15109;50.992;6.918;2022-10-16T00:21:45;100518.19;;;14.57;100.00
27705;BME280;15109;50.992;6.918;2022-10-16T00:25:06;100533.41;;;14.60;100.00
27705;BME280;15109;50.992;6.918;2022-10-16T00:28:28;100524.97;;;14.61;100.00
27705;BME280;15109;50.992;6.918;2022-10-16T00:31:49;100528.16;;;14.58;100.00
27705;BME280;15109;50.992;6.918;2022-10-16T00:35:10;100510.34;;;14.54;100.00
27705;BME280;15109;50.992;6.918;2022-10-16T00:38:31;100516.34;;;14.44;100.00
27705;BME280;15109;50.992;6.918;2022-10-16T00:41:52;100521.41;;;14.34;100.00
27705;BME280;15109;50.992;6.918;2022-10-16T00:45:13;100518.06;;;14.26;100.00
27705;BME280;15109;50.992;6.918;2022-10-16T00:48:34;100510.47;;;14.15;100.00
27705;BME280;15109;50.992;6.918;2022-10-16T00:51:55;100509.63;;;14.07;100.00
27705;BME280;15109;50.992;6.918;2022-10-16T00:55:17;100514.72;;;14.04;100.00
27705;BME280;15109;50.992;6.918;2022-10-16T00:58:38;100505.66;;;13.97;100.00
27705;BME280;15109;50.992;6.918;2022-10-16T01:02:00;100511.34;;;13.95;100.00
27705;BME280;15109;50.992;6.918;2022-10-16T01:05:48;100517.06;;;13.87;100.00
27705;BME280;15109;50.992;6.918;2022-10-16T01:09:36;100518.13;;;13.86;100.00
27705;BME280;15109;50.992;6.918;2022-10-16T01:17:06;100519.38;;;13.90;100.00
27705;BME280;15109;50.992;6.918;2022-10-16T01:20:30;100535.03;;;13.83;100.00
27705;BME280;15109;50.992;6.918;2022-10-16T01:24:19;100533.53;;;13.81;100.00
27705;BME280;15109;50.992;6.918;2022-10-16T01:27:48;100545.22;;;13.76;100.00
27705;BME280;15109;50.992;6.918;2022-10-16T01:31:10;100534.84;;;13.78;100.00
27705;BME280;15109;50.992;6.918;2022-10-16T01:34:37;100529.13;;;13.86;100.00
27705;BME280;15109;50.992;6.918;2022-10-16T01:38:10;100525.94;;;13.83;100.00
27705;BME280;15109;50.992;6.918;2022-10-16T01:41:36;100545.81;;;13.78;100.00
27705;BME280;15109;50.992;6.918;2022-10-16T01:45:00;100538.44;;;13.79;100.00
27705;BME280;15109;50.992;6.918;2022-10-16T01:48:22;100539.91;;;13.75;100.00
27705;BME280;15109;50.992;6.918;2022-10-16T01:51:49;100539.72;;;13.76;100.00
27705;BME280;15109;50.992;6.918;2022-10-16T01:55:18;100547.09;;;13.82;100.00
27705;BME280;15109;50.992;6.918;2022-10-16T01:58:44;100555.53;;;13.81;100.00
27705;BME280;15109;50.992;6.918;2022-10-16T02:02:09;100546.88;;;13.84;100.00
27705;BME280;15109;50.992;6.918;2022-10-16T02:05:37;100542.44;;;13.83;100.00
27705;BME280;15109;50.992;6.918;2022-10-16T02:08:59;100539.25;;;13.86;100.00
27705;BME280;15109;50.992;6.918;2022-10-16T02:12:27;100546.03;;;13.96;100.00
27705;BME280;15109;50.992;6.918;2022-10-16T02:15:49;100552.34;;;14.03;100.00
27705;BME280;15109;50.992;6.918;2022-10-16T02:19:11;100555.13;;;14.10;100.00
27705;BME280;15109;50.992;6.918;2022-10-16T02:22:36;100552.97;;;14.19;100.00
27705;BME280;15109;50.992;6.918;2022-10-16T02:25:59;100555.28;;;14.22;100.00
27705;BME280;15109;50.992;6.918;2022-10-16T02:29:26;100552.09;;;14.25;100.00
27705;BME280;15109;50.992;6.918;2022-10-16T02:32:48;100553.38;;;14.29;100.00
27705;BME280;15109;50.992;6.918;2022-10-16T02:36:10;100552.31;;;14.30;100.00
27705;BME280;15109;50.992;6.918;2022-10-16T02:39:31;100561.41;;;14.30;100.00
27705;BME280;15109;50.992;6.918;2022-10-16T02:42:54;100566.06;;;14.30;100.00
27705;BME280;15109;50.992;6.918;2022-10-16T02:46:17;100560.78;;;14.35;100.00
27705;BME280;15109;50.992;6.918;2022-10-16T02:49:38;100556.16;;;14.35;100.00
27705;BME280;15109;50.992;6.918;2022-10-16T02:52:59;100558.22;;;14.33;100.00
27705;BME280;15109;50.992;6.918;2022-10-16T02:56:21;100566.72;;;14.38;100.00
27705;BME280;15109;50.992;6.918;2022-10-16T02:59:42;100579.00;;;14.36;100.00
27705;BME280;15109;50.992;6.918;2022-10-16T03:03:03;100561.41;;;14.37;100.00
27705;BME280;15109;50.992;6.918;2022-10-16T03:06:24;100567.16;;;14.35;100.00
27705;BME280;15109;50.992;6.918;2022-10-16T03:09:45;100561.41;;;14.37;100.00
27705;BME280;15109;50.992;6.918;2022-10-16T03:13:06;100564.16;;;14.37;100.00
27705;BME280;15109;50.992;6.918;2022-10-16T03:16:27;100551.25;;;14.31;100.00
27705;BME280;15109;50.992;6.918;2022-10-16T03:19:49;100544.94;;;14.24;100.00
27705;BME280;15109;50.992;6.918;2022-10-16T03:23:10;100543.66;;;14.20;100.00
27705;BME280;15109;50.992;6.918;2022-10-16T03:26:31;100545.13;;;14.16;100.00
27705;BME280;15109;50.992;6.918;2022-10-16T03:29:52;100556.38;;;14.14;100.00
27705;BME280;15109;50.992;6.918;2022-10-16T03:33:13;100555.94;;;14.17;100.00
27705;BME280;15109;50.992;6.918;2022-10-16T03:36:34;100548.53;;;14.18;100.00
27705;BME280;15109;50.992;6.918;2022-10-16T03:39:58;100553.81;;;14.13;100.00
27705;BME280;15109;50.992;6.918;2022-10-16T03:43:20;100558.03;;;14.15;100.00
27705;BME280;15109;50.992;6.918;2022-10-16T03:46:41;100563.34;;;14.17;100.00
27705;BME280;15109;50.992;6.918;2022-10-16T03:50:03;100568.41;;;14.20;100.00
27705;BME280;15109;50.992;6.918;2022-10-16T03:53:24;100561.22;;;14.25;100.00
27705;BME280;15109;50.992;6.918;2022-10-16T03:56:45;100578.56;;;14.26;100.00
27705;BME280;15109;50.992;6.918;2022-10-16T04:00:07;100596.53;;;14.28;100.00
27705;BME280;15109;50.992;6.918;2022-10-16T04:03:32;100587.00;;;14.24;100.00
27705;BME280;15109;50.992;6.918;2022-10-16T04:06:53;100593.56;;;14.30;100.00
27705;BME280;15109;50.992;6.918;2022-10-16T04:10:14;100600.97;;;14.29;100.00
27705;BME280;15109;50.992;6.918;2022-10-16T04:13:36;100603.53;;;14.31;100.00
27705;BME280;15109;50.992;6.918;2022-10-16T04:16:57;100596.72;;;14.33;100.00
27705;BME280;15109;50.992;6.918;2022-10-16T04:20:18;100605.66;;;14.35;100.00
27705;BME280;15109;50.992;6.918;2022-10-16T04:23:39;100614.97;;;14.41;100.00
27705;BME280;15109;50.992;6.918;2022-10-16T04:27:00;100620.25;;;14.36;100.00
27705;BME280;15109;50.992;6.918;2022-10-16T04:30:22;100625.31;;;14.32;100.00
27705;BME280;15109;50.992;6.918;2022-10-16T04:33:43;100624.47;;;14.32;100.00
27705;BME280;15109;50.992;6.918;2022-10-16T04:37:05;100622.75;;;14.24;100.00
27705;BME280;15109;50.992;6.918;2022-10-16T04:40:26;100610.94;;;14.24;100.00
27705;BME280;15109;50.992;6.918;2022-10-16T04:43:47;100622.34;;;14.21;100.00
27705;BME280;15109;50.992;6.918;2022-10-16T04:47:08;100632.28;;;14.15;100.00
27705;BME280;15109;50.992;6.918;2022-10-16T04:50:29;100615.81;;;14.08;100.00
27705;BME280;15109;50.992;6.918;2022-10-16T04:53:59;100632.31;;;14.02;100.00
27705;BME280;15109;50.992;6.918;2022-10-16T04:57:20;100631.88;;;14.05;100.00
27705;BME280;15109;50.992;6.918;2022-10-16T05:00:41;100639.28;;;14.11;100.00
27705;BME280;15109;50.992;6.918;2022-10-16T05:04:03;100648.16;;;14.13;100.00
27705;BME280;15109;50.992;6.918;2022-10-16T05:07:24;100645.41;;;14.13;100.00
27705;BME280;15109;50.992;6.918;2022-10-16T05:10:45;100648.78;;;14.15;100.00
27705;BME280;15109;50.992;6.918;2022-10-16T05:14:06;100653.00;;;14.11;100.00
27705;BME280;15109;50.992;6.918;2022-10-16T05:17:27;100653.44;;;14.08;100.00
27705;BME280;15109;50.992;6.918;2022-10-16T05:20:48;100663.59;;;14.07;100.00
27705;BME280;15109;50.992;6.918;2022-10-16T05:24:09;100657.47;;;14.12;100.00
27705;BME280;15109;50.992;6.918;2022-10-16T05:27:31;100649.44;;;14.11;100.00
27705;BME280;15109;50.992;6.918;2022-10-16T05:30:52;100641.84;;;14.06;100.00
27705;BME280;15109;50.992;6.918;2022-10-16T05:34:13;100665.94;;;14.04;100.00
27705;BME280;15109;50.992;6.918;2022-10-16T05:37:34;100669.72;;;14.03;100.00
27705;BME280;15109;50.992;6.918;2022-10-16T05:40:58;100678.63;;;14.05;100.00
27705;BME280;15109;50.992;6.918;2022-10-16T05:44:22;100680.31;;;14.06;100.00
27705;BME280;15109;50.992;6.918;2022-10-16T05:47:43;100673.34;;;14.10;100.00
27705;BME280;15109;50.992;6.918;2022-10-16T05:51:06;100678.00;;;14.09;100.00
27705;BME280;15109;50.992;6.918;2022-10-16T05:54:30;100678.81;;;14.03;100.00
27705;BME280;15109;50.992;6.918;2022-10-16T05:57:54;100690.69;;;13.97;100.00
27705;BME280;15109;50.992;6.918;2022-10-16T06:01:17;100710.09;;;13.89;100.00
27705;BME280;15109;50.992;6.918;2022-10-16T06:04:39;100705.88;;;13.87;100.00
27705;BME280;15109;50.992;6.918;2022-10-16T06:08:00;100700.38;;;13.87;100.00
27705;BME280;15109;50.992;6.918;2022-10-16T06:11:23;100723.63;;;13.84;100.00
27705;BME280;15109;50.992;6.918;2022-10-16T06:14:45;100731.22;;;13.82;100.00
27705;BME280;15109;50.992;6.918;2022-10-16T06:18:10;100726.59;;;13.83;100.00
27705;BME280;15109;50.992;6.918;2022-10-16T06:21:31;100730.00;;;13.85;100.00
27705;BME280;15109;50.992;6.918;2022-10-16T06:24:52;100725.13;;;13.87;100.00
27705;BME280;15109;50.992;6.918;2022-10-16T06:28:14;100733.34;;;13.87;100.00
27705;BME280;15109;50.992;6.918;2022-10-16T06:31:35;100730.00;;;13.85;100.00
27705;BME280;15109;50.992;6.918;2022-10-16T06:34:56;100730.63;;;13.87;100.00
27705;BME280;15109;50.992;6.918;2022-10-16T06:38:17;100735.06;;;13.94;100.00
27705;BME280;15109;50.992;6.918;2022-10-16T06:41:38;100751.56;;;13.94;100.00
27705;BME280;15109;50.992;6.918;2022-10-16T06:45:09;100760.47;;;14.03;100.00
27705;BME280;15109;50.992;6.918;2022-10-16T06:48:31;100766.22;;;14.15;100.00
27705;BME280;15109;50.992;6.918;2022-10-16T06:51:52;100760.50;;;14.23;100.00
27705;BME280;15109;50.992;6.918;2022-10-16T06:55:16;100771.94;;;14.33;100.00
27705;BME280;15109;50.992;6.918;2022-10-16T06:58:37;100768.38;;;14.39;100.00
27705;BME280;15109;50.992;6.918;2022-10-16T07:02:01;100787.44;;;14.47;100.00
27705;BME280;15109;50.992;6.918;2022-10-16T07:05:25;100782.56;;;14.56;100.00
27705;BME280;15109;50.992;6.918;2022-10-16T07:08:46;100789.75;;;14.63;100.00
27705;BME280;15109;50.992;6.918;2022-10-16T07:12:08;100788.91;;;14.69;100.00
27705;BME280;15109;50.992;6.918;2022-10-16T07:15:29;100792.31;;;14.78;100.00
27705;BME280;15109;50.992;6.918;2022-10-16T07:18:50;100802.88;;;14.81;100.00
27705;BME280;15109;50.992;6.918;2022-10-16T07:22:12;100812.22;;;14.86;100.00
27705;BME280;15109;50.992;6.918;2022-10-16T07:25:33;100810.94;;;14.89;100.00
27705;BME280;15109;50.992;6.918;2022-10-16T07:28:54;100829.81;;;14.92;100.00
27705;BME280;15109;50.992;6.918;2022-10-16T07:32:15;100826.19;;;14.91;100.00
27705;BME280;15109;50.992;6.918;2022-10-16T07:35:36;100830.66;;;14.92;100.00
27705;BME280;15109;50.992;6.918;2022-10-16T07:38:57;100842.06;;;14.89;100.00
27705;BME280;15109;50.992;6.918;2022-10-16T07:42:18;100839.31;;;14.83;100.00
27705;BME280;15109;50.992;6.918;2022-10-16T07:45:47;100838.91;;;14.79;100.00
27705;BME280;15109;50.992;6.918;2022-10-16T07:49:11;100844.81;;;14.76;100.00
27705;BME280;15109;50.992;6.918;2022-10-16T07:52:32;100857.53;;;14.77;100.00
27705;BME280;15109;50.992;6.918;2022-10-16T07:56:01;100858.38;;;14.91;100.00
27705;BME280;15109;50.992;6.918;2022-10-16T07:59:22;100866.00;;;15.02;100.00
27705;BME280;15109;50.992;6.918;2022-10-16T08:02:43;100869.19;;;14.92;100.00
27705;BME280;15109;50.992;6.918;2022-10-16T08:06:05;100869.84;;;15.01;100.00
27705;BME280;15109;50.992;6.918;2022-10-16T08:09:26;100880.41;;;15.11;100.00
27705;BME280;15109;50.992;6.918;2022-10-16T08:12:47;100877.41;;;15.19;100.00
27705;BME280;15109;50.992;6.918;2022-10-16T08:16:08;100887.38;;;15.20;100.00
27705;BME280;15109;50.992;6.918;2022-10-16T08:19:30;100888.03;;;15.35;100.00
27705;BME280;15109;50.992;6.918;2022-10-16T08:22:55;100898.38;;;15.46;100.00
27705;BME280;15109;50.992;6.918;2022-10-16T08:26:16;100897.13;;;15.55;100.00
27705;BME280;15109;50.992;6.918;2022-10-16T08:29:37;100910.28;;;15.60;100.00
27705;BME280;15109;50.992;6.918;2022-10-16T08:32:59;100909.84;;;15.63;100.00
27705;BME280;15109;50.992;6.918;2022-10-16T08:36:21;100924.88;;;15.67;100.00
27705;BME280;15109;50.992;6.918;2022-10-16T08:39:42;100929.97;;;15.76;100.00
27705;BME280;15109;50.992;6.918;2022-10-16T08:50:27;100934.16;;;15.92;100.00
27705;BME280;15109;50.992;6.918;2022-10-16T08:53:54;100942.84;;;16.02;100.00
27705;BME280;15109;50.992;6.918;2022-10-16T08:57:21;100943.66;;;16.09;100.00
27705;BME280;15109;50.992;6.918;2022-10-16T09:00:45;100962.34;;;16.07;100.00
27705;BME280;15109;50.992;6.918;2022-10-16T09:21:47;100975.16;;;16.46;100.00
27705;BME280;15109;50.992;6.918;2022-10-16T09:25:17;100968.53;;;16.54;100.00
27705;BME280;15109;50.992;6.918;2022-10-16T09:28:38;100973.59;;;16.57;100.00
27705;BME280;15109;50.992;6.918;2022-10-16T09:32:10;100975.97;;;16.60;100.00
27705;BME280;15109;50.992;6.918;2022-10-16T09:35:35;100979.09;;;16.70;100.00
27705;BME280;15109;50.992;6.918;2022-10-16T09:39:06;100987.81;;;16.73;100.00
27705;BME280;15109;50.992;6.918;2022-10-16T09:42:31;100982.44;;;16.78;100.00
27705;BME280;15109;50.992;6.918;2022-10-16T09:45:56;100992.41;;;16.86;100.00
27705;BME280;15109;50.992;6.918;2022-10-16T09:49:25;100999.38;;;16.89;100.00
27705;BME280;15109;50.992;6.918;2022-10-16T09:52:46;100988.97;;;16.91;100.00
27705;BME280;15109;50.992;6.918;2022-10-16T09:56:10;100997.47;;;16.89;100.00
27705;BME280;15109;50.992;6.918;2022-10-16T09:59:34;101008.25;;;16.97;100.00
27705;BME280;15109;50.992;6.918;2022-10-16T10:03:10;101007.16;;;17.05;100.00
27705;BME280;15109;50.992;6.918;2022-10-16T10:06:36;101007.78;;;17.07;100.00
27705;BME280;15109;50.992;6.918;2022-10-16T10:10:03;101000.28;;;17.14;100.00
27705;BME280;15109;50.992;6.918;2022-10-16T10:13:24;100986.06;;;17.17;100.00
27705;BME280;15109;50.992;6.918;2022-10-16T10:16:47;100988.13;;;17.21;100.00
27705;BME280;15109;50.992;6.918;2022-10-16T10:20:28;100985.03;;;17.36;100.00
27705;BME280;15109;50.992;6.918;2022-10-16T10:23:55;100980.16;;;17.38;100.00
27705;BME280;15109;50.992;6.918;2022-10-16T10:27:18;100982.66;;;17.40;100.00
27705;BME280;15109;50.992;6.918;2022-10-16T10:45:26;100999.44;;;17.69;100.00
27705;BME280;15109;50.992;6.918;2022-10-16T10:56:15;101006.41;;;17.79;100.00
27705;BME280;15109;50.992;6.918;2022-10-16T11:07:01;101003.19;;;18.00;100.00
27705;BME280;15109;50.992;6.918;2022-10-16T11:10:42;100998.63;;;18.12;100.00
27705;BME280;15109;50.992;6.918;2022-10-16T11:14:24;101003.00;;;18.01;100.00
27705;BME280;15109;50.992;6.918;2022-10-16T11:18:06;101006.81;;;18.00;100.00
27705;BME280;15109;50.992;6.918;2022-10-16T11:21:30;101021.81;;;17.93;100.00
27705;BME280;15109;50.992;6.918;2022-10-16T11:32:22;101004.06;;;18.00;100.00
27705;BME280;15109;50.992;6.918;2022-10-16T11:39:28;101010.47;;;18.19;100.00
27705;BME280;15109;50.992;6.918;2022-10-16T11:42:55;101012.47;;;18.30;100.00
27705;BME280;15109;50.992;6.918;2022-10-16T11:46:21;101030.09;;;18.36;100.00
27705;BME280;15109;50.992;6.918;2022-10-16T11:49:45;101026.63;;;18.40;100.00
27705;BME280;15109;50.992;6.918;2022-10-16T11:57:15;101042.91;;;18.55;100.00
27705;BME280;15109;50.992;6.918;2022-10-16T12:08:09;101031.84;;;18.48;100.00
27705;BME280;15109;50.992;6.918;2022-10-16T12:11:37;101045.38;;;18.38;100.00
27705;BME280;15109;50.992;6.918;2022-10-16T12:15:23;101040.53;;;18.34;100.00
27705;BME280;15109;50.992;6.918;2022-10-16T12:18:45;101049.38;;;18.42;100.00
27705;BME280;15109;50.992;6.918;2022-10-16T12:22:18;101046.84;;;18.41;100.00
27705;BME280;15109;50.992;6.918;2022-10-16T12:25:40;101044.94;;;18.41;100.00
27705;BME280;15109;50.992;6.918;2022-10-16T12:33:00;101035.94;;;18.46;100.00
27705;BME280;15109;50.992;6.918;2022-10-16T12:36:34;101027.69;;;18.39;100.00
27705;BME280;15109;50.992;6.918;2022-10-16T12:39:56;101023.53;;;18.30;100.00
27705;BME280;15109;50.992;6.918;2022-10-16T12:43:25;101023.25;;;18.20;100.00
27705;BME280;15109;50.992;6.918;2022-10-16T12:46:47;101016.47;;;18.16;100.00
27705;BME280;15109;50.992;6.918;2022-10-16T12:50:32;101019.16;;;18.23;100.00
27705;BME280;15109;50.992;6.918;2022-10-16T12:54:02;101021.88;;;18.29;100.00
27705;BME280;15109;50.992;6.918;2022-10-16T13:09:49;101023.75;;;18.47;100.00
27705;BME280;15109;50.992;6.918;2022-10-16T13:13:32;101015.19;;;18.55;100.00
27705;BME280;15109;50.992;6.918;2022-10-16T13:20:33;101023.25;;;18.56;100.00
27705;BME280;15109;50.992;6.918;2022-10-16T13:31:20;101027.16;;;18.49;100.00
27705;BME280;15109;50.992;6.918;2022-10-16T13:34:47;101024.69;;;18.41;100.00
27705;BME280;15109;50.992;6.918;2022-10-16T13:38:13;101027.47;;;18.41;100.00
27705;BME280;15109;50.992;6.918;2022-10-16T13:41:34;101030.53;;;18.51;100.00
27705;BME280;15109;50.992;6.918;2022-10-16T13:44:56;101038.03;;;18.50;100.00
27705;BME280;15109;50.992;6.918;2022-10-16T13:48:17;101037.63;;;18.83;100.00
27705;BME280;15109;50.992;6.918;2022-10-16T13:51:38;101026.22;;;18.91;100.00
27705;BME280;15109;50.992;6.918;2022-10-16T13:54:59;101018.06;;;18.96;100.00
27705;BME280;15109;50.992;6.918;2022-10-16T13:58:20;101019.97;;;18.96;100.00
27705;BME280;15109;50.992;6.918;2022-10-16T14:01:42;101015.28;;;18.96;100.00
27705;BME280;15109;50.992;6.918;2022-10-16T14:05:08;101022.75;;;18.96;100.00
27705;BME280;15109;50.992;6.918;2022-10-16T14:08:33;101014.44;;;18.96;100.00
27705;BME280;15109;50.992;6.918;2022-10-16T14:12:00;101025.66;;;19.01;100.00
27705;BME280;15109;50.992;6.918;2022-10-16T14:15:25;101035.69;;;19.02;100.00
27705;BME280;15109;50.992;6.918;2022-10-16T14:19:00;101041.66;;;18.99;100.00
27705;BME280;15109;50.992;6.918;2022-10-16T14:22:26;101041.97;;;19.09;100.00
27705;BME280;15109;50.992;6.918;2022-10-16T14:25:49;101027.72;;;19.06;100.00
27705;BME280;15109;50.992;6.918;2022-10-16T14:29:17;101021.31;;;18.93;100.00
27705;BME280;15109;50.992;6.918;2022-10-16T14:32:40;101025.38;;;18.91;100.00
27705;BME280;15109;50.992;6.918;2022-10-16T14:36:11;101013.16;;;18.80;100.00
27705;BME280;15109;50.992;6.918;2022-10-16T14:39:33;101015.09;;;18.80;100.00
27705;BME280;15109;50.992;6.918;2022-10-16T14:42:55;101016.84;;;18.74;100.00
27705;BME280;15109;50.992;6.918;2022-10-16T14:46:21;101008.91;;;18.78;100.00
27705;BME280;15109;50.992;6.918;2022-10-16T14:49:46;101014.72;;;18.76;100.00
27705;BME280;15109;50.992;6.918;2022-10-16T14:53:11;101031.56;;;18.75;100.00
27705;BME280;15109;50.992;6.918;2022-10-16T14:56:49;101031.09;;;18.78;100.00
27705;BME280;15109;50.992;6.918;2022-10-16T15:00:20;101037.63;;;18.83;100.00
27705;BME280;15109;50.992;6.918;2022-10-16T15:03:43;101038.25;;;18.85;100.00
27705;BME280;15109;50.992;6.918;2022-10-16T15:07:04;101032.78;;;18.79;100.00
27705;BME280;15109;50.992;6.918;2022-10-16T15:10:27;101036.47;;;18.73;100.00
27705;BME280;15109;50.992;6.918;2022-10-16T15:13:49;101038.72;;;18.64;100.00
27705;BME280;15109;50.992;6.918;2022-10-16T15:17:12;101046.19;;;18.64;100.00
27705;BME280;15109;50.992;6.918;2022-10-16T15:20:35;101040.25;;;18.60;100.00
27705;BME280;15109;50.992;6.918;2022-10-16T15:23:58;101033.03;;;18.59;100.00
27705;BME280;15109;50.992;6.918;2022-10-16T15:27:19;101036.72;;;18.53;100.00
27705;BME280;15109;50.992;6.918;2022-10-16T15:30:41;101039.31;;;18.48;100.00
27705;BME280;15109;50.992;6.918;2022-10-16T15:34:02;101040.00;;;18.43;100.00
27705;BME280;15109;50.992;6.918;2022-10-16T15:37:25;101034.47;;;18.43;100.00
27705;BME280;15109;50.992;6.918;2022-10-16T15:40:49;101028.38;;;18.35;100.00
27705;BME280;15109;50.992;6.918;2022-10-16T15:44:10;101019.31;;;18.28;100.00
27705;BME280;15109;50.992;6.918;2022-10-16T15:47:31;101021.31;;;18.21;100.00
27705;BME280;15109;50.992;6.918;2022-10-16T15:50:53;101017.28;;;18.17;100.00
27705;BME280;15109;50.992;6.918;2022-10-16T15:54:14;101027.53;;;18.16;100.00
27705;BME280;15109;50.992;6.918;2022-10-16T15:57:36;101020.13;;;18.10;100.00
27705;BME280;15109;50.992;6.918;2022-10-16T16:01:03;101014.22;;;18.06;100.00
27705;BME280;15109;50.992;6.918;2022-10-16T16:04:29;100999.75;;;18.04;100.00
27705;BME280;15109;50.992;6.918;2022-10-16T16:07:51;101001.44;;;18.05;100.00
27705;BME280;15109;50.992;6.918;2022-10-16T16:11:14;101000.59;;;18.05;100.00
27705;BME280;15109;50.992;6.918;2022-10-16T16:14:35;101002.34;;;17.99;100.00
27705;BME280;15109;50.992;6.918;2022-10-16T16:17:56;101005.19;;;17.93;100.00
27705;BME280;15109;50.992;6.918;2022-10-16T16:21:17;101008.00;;;17.86;100.00
27705;BME280;15109;50.992;6.918;2022-10-16T16:24:38;101005.72;;;17.83;100.00
27705;BME280;15109;50.992;6.918;2022-10-16T16:28:02;101006.41;;;17.79;100.00
27705;BME280;15109;50.992;6.918;2022-10-16T16:31:25;101009.00;;;17.74;100.00
27705;BME280;15109;50.992;6.918;2022-10-16T16:34:46;101013.06;;;17.71;100.00
27705;BME280;15109;50.992;6.918;2022-10-16T16:38:08;101009.91;;;17.67;100.00
27705;BME280;15109;50.992;6.918;2022-10-16T16:41:29;101016.72;;;17.65;100.00
27705;BME280;15109;50.992;6.918;2022-10-16T16:44:50;101021.88;;;17.61;100.00
27705;BME280;15109;50.992;6.918;2022-10-16T16:48:11;101025.72;;;17.54;100.00
27705;BME280;15109;50.992;6.918;2022-10-16T16:51:33;101028.50;;;17.54;100.00
27705;BME280;15109;50.992;6.918;2022-10-16T16:54:54;101014.28;;;17.50;100.00
27705;BME280;15109;50.992;6.918;2022-10-16T16:58:15;101025.34;;;17.50;100.00
27705;BME280;15109;50.992;6.918;2022-10-16T17:01:36;101019.41;;;17.47;100.00
27705;BME280;15109;50.992;6.918;2022-10-16T17:04:57;101023.63;;;17.49;100.00
27705;BME280;15109;50.992;6.918;2022-10-16T17:08:18;101023.03;;;17.47;100.00
27705;BME280;15109;50.992;6.918;2022-10-16T17:11:40;101030.22;;;17.48;100.00
27705;BME280;15109;50.992;6.918;2022-10-16T17:15:05;101036.84;;;17.47;100.00
27705;BME280;15109;50.992;6.918;2022-10-16T17:18:27;101045.97;;;17.48;100.00
27705;BME280;15109;50.992;6.918;2022-10-16T17:21:48;101039.38;;;17.49;100.00
27705;BME280;15109;50.992;6.918;2022-10-16T17:25:10;101055.13;;;17.48;100.00
27705;BME280;15109;50.992;6.918;2022-10-16T17:28:31;101047.84;;;17.54;100.00
27705;BME280;15109;50.992;6.918;2022-10-16T17:31:55;101051.47;;;17.54;100.00
27705;BME280;15109;50.992;6.918;2022-10-16T17:35:16;101045.31;;;17.52;100.00
27705;BME280;15109;50.992;6.918;2022-10-16T17:38:38;101060.44;;;17.50;100.00
27705;BME280;15109;50.992;6.918;2022-10-16T17:41:59;101051.50;;;17.48;100.00
27705;BME280;15109;50.992;6.918;2022-10-16T17:45:20;101060.88;;;17.47;100.00
27705;BME280;15109;50.992;6.918;2022-10-16T17:48:46;101065.31;;;17.48;100.00
27705;BME280;15109;50.992;6.918;2022-10-16T17:52:08;101067.88;;;17.49;100.00
27705;BME280;15109;50.992;6.918;2022-10-16T17:55:29;101071.50;;;17.50;100.00
27705;BME280;15109;50.992;6.918;2022-10-16T17:58:52;101067.22;;;17.54;100.00
27705;BME280;15109;50.992;6.918;2022-10-16T18:02:14;101068.28;;;17.53;100.00
27705;BME280;15109;50.992;6.918;2022-10-16T18:05:37;101070.19;;;17.59;100.00
27705;BME280;15109;50.992;6.918;2022-10-16T18:08:59;101065.69;;;17.64;100.00
27705;BME280;15109;50.992;6.918;2022-10-16T18:12:20;101075.72;;;17.59;100.00
27705;BME280;15109;50.992;6.918;2022-10-16T18:15:42;101066.56;;;17.58;100.00
27705;BME280;15109;50.992;6.918;2022-10-16T18:19:03;101078.06;;;17.55;100.00
27705;BME280;15109;50.992;6.918;2022-10-16T18:22:25;101075.50;;;17.54;100.00
27705;BME280;15109;50.992;6.918;2022-10-16T18:25:50;101073.81;;;17.53;100.00
27705;BME280;15109;50.992;6.918;2022-10-16T18:29:12;101062.34;;;17.49;100.00
27705;BME280;15109;50.992;6.918;2022-10-16T18:32:33;101069.19;;;17.47;100.00
27705;BME280;15109;50.992;6.918;2022-10-16T18:35:54;101062.56;;;17.48;100.00
27705;BME280;15109;50.992;6.918;2022-10-16T18:39:15;101065.97;;;17.50;100.00
27705;BME280;15109;50.992;6.918;2022-10-16T18:42:38;101061.75;;;17.47;100.00
27705;BME280;15109;50.992;6.918;2022-10-16T18:46:05;101070.25;;;17.46;100.00
27705;BME280;15109;50.992;6.918;2022-10-16T18:49:27;101075.31;;;17.49;100.00
27705;BME280;15109;50.992;6.918;2022-10-16T18:52:49;101070.25;;;17.46;100.00
27705;BME280;15109;50.992;6.918;2022-10-16T18:56:11;101083.44;;;17.44;100.00
27705;BME280;15109;50.992;6.918;2022-10-16T18:59:34;101079.22;;;17.41;100.00
27705;BME280;15109;50.992;6.918;2022-10-16T19:02:55;101081.97;;;17.41;100.00
27705;BME280;15109;50.992;6.918;2022-10-16T19:06:17;101093.03;;;17.41;100.00
27705;BME280;15109;50.992;6.918;2022-10-16T19:09:38;101097.06;;;17.39;100.00
27705;BME280;15109;50.992;6.918;2022-10-16T19:12:59;101095.59;;;17.36;100.00
27705;BME280;15109;50.992;6.918;2022-10-16T19:16:25;101099.22;;;17.37;100.00
27705;BME280;15109;50.992;6.918;2022-10-16T19:19:47;101104.97;;;17.35;100.00